createdAt,value
2022-10-09T00:01:12.644Z,79.76
2022-10-09T00:04:34.177Z,79.83
2022-10-09T00:07:55.685Z,79.60
2022-10-09T00:11:22.913Z,79.92
2022-10-09T00:14:44.456Z,79.97
2022-10-09T00:18:09.453Z,79.82
2022-10-09T00:21:35.262Z,79.91
2022-10-09T00:24:58.109Z,80.32
2022-10-09T00:28:20.729Z,80.39
2022-10-09T00:31:42.309Z,80.03
2022-10-09T00:35:06.286Z,80.36
2022-10-09T00:38:28.839Z,80.26
2022-10-09T00:41:50.380Z,80.27
2022-10-09T00:45:22.554Z,80.20
2022-10-09T00:48:46.929Z,80.53
2022-10-09T00:52:08.524Z,80.07
2022-10-09T00:55:31.383Z,80.17
2022-10-09T00:58:56.279Z,80.38
2022-10-09T01:02:20.303Z,80.21
2022-10-09T01:06:10.477Z,79.95
2022-10-09T01:09:40.259Z,80.18
2022-10-09T01:13:28.567Z,79.58
2022-10-09T01:16:55.049Z,80.28
2022-10-09T01:20:27.949Z,80.55
2022-10-09T01:23:58.597Z,80.64
2022-10-09T01:27:25.706Z,79.73
2022-10-09T01:30:50.654Z,79.42
2022-10-09T01:34:16.459Z,79.98
2022-10-09T01:37:40.660Z,80.87
2022-10-09T01:41:04.406Z,80.55
2022-10-09T01:44:31.163Z,80.29
2022-10-09T01:47:52.718Z,80.61
2022-10-09T01:51:24.450Z,80.41
2022-10-09T01:54:55.247Z,79.69
2022-10-09T01:58:30.267Z,79.69
2022-10-09T02:01:52.683Z,80.14
2022-10-09T02:05:22.183Z,81.15
2022-10-09T02:08:46.740Z,81.25
2022-10-09T02:12:11.226Z,81.23
2022-10-09T02:15:47.449Z,81.11
2022-10-09T02:19:16.243Z,80.04
2022-10-09T02:22:39.065Z,79.81
2022-10-09T02:26:03.057Z,79.53
2022-10-09T02:29:25.210Z,79.85
2022-10-09T02:32:52.052Z,80.06
2022-10-09T02:36:15.921Z,80.54
2022-10-09T02:39:37.486Z,80.62
2022-10-09T02:43:04.173Z,80.47
2022-10-09T02:46:26.355Z,81.08
2022-10-09T02:49:47.928Z,81.05
2022-10-09T02:53:09.441Z,80.90
2022-10-09T02:56:33.592Z,80.73
2022-10-09T02:59:57.066Z,80.67
2022-10-09T03:03:19.484Z,80.61
2022-10-09T03:06:41.023Z,80.78
2022-10-09T03:10:02.582Z,81.14
2022-10-09T03:13:27.225Z,81.12
2022-10-09T03:16:49.090Z,81.02
2022-10-09T03:20:10.872Z,81.34
2022-10-09T03:23:32.502Z,81.23
2022-10-09T03:26:57.017Z,81.01
2022-10-09T03:30:20.834Z,81.68
2022-10-09T03:33:44.823Z,81.63
2022-10-09T03:37:06.382Z,81.58
2022-10-09T03:40:30.123Z,81.85
2022-10-09T03:43:51.650Z,81.90
2022-10-09T03:47:15.239Z,81.74
2022-10-09T03:50:42.558Z,82.00
2022-10-09T03:54:06.584Z,82.23
2022-10-09T03:57:28.103Z,82.40
2022-10-09T04:00:51.075Z,82.30
2022-10-09T04:04:12.642Z,82.32
2022-10-09T04:07:34.570Z,81.68
2022-10-09T04:11:02.151Z,82.10
2022-10-09T04:14:23.657Z,82.23
2022-10-09T04:17:45.408Z,82.81
2022-10-09T04:21:07.056Z,83.10
2022-10-09T04:24:30.906Z,82.88
2022-10-09T04:27:52.410Z,83.05
2022-10-09T04:31:14.140Z,83.09
2022-10-09T04:34:35.710Z,83.45
2022-10-09T04:37:57.261Z,83.36
2022-10-09T04:41:21.034Z,83.67
2022-10-09T04:44:42.558Z,84.04
2022-10-09T04:48:04.271Z,83.84
2022-10-09T04:51:25.832Z,84.11
2022-10-09T04:54:47.343Z,83.92
2022-10-09T04:58:10.314Z,83.31
2022-10-09T05:01:38.065Z,83.31
2022-10-09T05:04:59.776Z,83.06
2022-10-09T05:08:23.578Z,83.52
2022-10-09T05:11:47.368Z,83.98
2022-10-09T05:15:09.345Z,84.13
2022-10-09T05:18:31.057Z,84.27
2022-10-09T05:21:54.976Z,84.43
2022-10-09T05:25:19.038Z,84.01
2022-10-09T05:28:40.648Z,83.89
2022-10-09T05:32:04.684Z,84.04
2022-10-09T05:35:26.221Z,83.89
2022-10-09T05:38:48.315Z,83.72
2022-10-09T05:42:11.911Z,83.70
2022-10-09T05:45:38.769Z,83.58
2022-10-09T05:49:05.307Z,83.34
2022-10-09T05:52:34.152Z,83.54
2022-10-09T05:56:02.844Z,83.39
2022-10-09T05:59:27.455Z,83.46
2022-10-09T06:02:49.238Z,83.34
2022-10-09T06:06:10.958Z,83.17
2022-10-09T06:09:34.978Z,83.15
2022-10-09T06:12:58.800Z,81.87
2022-10-09T06:16:28.114Z,82.00
2022-10-09T06:19:52.319Z,82.82
2022-10-09T06:23:15.911Z,82.90
2022-10-09T06:26:37.451Z,83.01
2022-10-09T06:29:58.961Z,83.24
2022-10-09T06:33:20.486Z,81.95
2022-10-09T06:36:45.008Z,81.99
2022-10-09T06:40:09.517Z,81.67
2022-10-09T06:43:33.261Z,82.59
2022-10-09T06:46:59.677Z,76.04
2022-10-09T06:50:23.908Z,72.86
2022-10-09T06:53:53.361Z,73.82
2022-10-09T06:57:14.866Z,74.71
2022-10-09T07:00:38.688Z,74.40
2022-10-09T07:04:07.075Z,72.56
2022-10-09T07:07:30.770Z,71.30
2022-10-09T07:10:54.525Z,69.01
2022-10-09T07:14:16.202Z,69.05
2022-10-09T07:17:37.840Z,70.86
2022-10-09T07:21:02.330Z,71.53
2022-10-09T07:24:25.391Z,69.94
2022-10-09T07:27:46.916Z,72.16
2022-10-09T07:31:11.842Z,70.90
2022-10-09T07:34:33.468Z,70.00
2022-10-09T07:37:54.972Z,68.66
2022-10-09T07:41:16.512Z,68.61
2022-10-09T07:44:38.054Z,67.24
2022-10-09T07:48:02.115Z,66.50
2022-10-09T07:51:28.961Z,65.46
2022-10-09T07:54:55.747Z,63.06
2022-10-09T07:58:17.427Z,60.13
2022-10-09T08:01:39.547Z,62.04
2022-10-09T08:05:03.568Z,61.42
2022-10-09T08:08:27.494Z,60.44
2022-10-09T08:11:48.991Z,61.19
2022-10-09T08:15:13.307Z,61.13
2022-10-09T08:18:37.842Z,60.37
2022-10-09T08:22:03.604Z,60.08
2022-10-09T08:25:25.288Z,67.48
2022-10-09T08:28:55.351Z,63.27
2022-10-09T08:32:16.890Z,55.61
2022-10-09T08:35:38.557Z,62.62
2022-10-09T08:39:02.539Z,53.80
2022-10-09T08:42:36.280Z,54.22
2022-10-09T08:46:06.406Z,52.79
2022-10-09T08:49:40.081Z,54.11
2022-10-09T08:53:36.346Z,55.13
2022-10-09T08:57:02.274Z,53.47
2022-10-09T09:00:28.191Z,54.83
2022-10-09T09:04:24.858Z,53.19
2022-10-09T09:07:54.245Z,54.61
2022-10-09T09:11:22.052Z,52.87
2022-10-09T09:15:01.087Z,55.29
2022-10-09T09:18:41.917Z,55.40
2022-10-09T09:22:08.729Z,55.52
2022-10-09T09:25:39.852Z,57.86
2022-10-09T09:29:03.418Z,58.90
2022-10-09T09:32:29.489Z,58.96
2022-10-09T09:35:57.361Z,59.35
2022-10-09T09:40:08.311Z,59.78
2022-10-09T09:43:27.477Z,55.85
2022-10-09T09:46:49.582Z,55.37
2022-10-09T09:50:28.566Z,52.34
2022-10-09T09:53:55.725Z,52.15
2022-10-09T09:57:31.840Z,49.16
2022-10-09T10:01:01.455Z,50.74
2022-10-09T10:04:28.163Z,50.47
2022-10-09T10:07:51.474Z,53.81
2022-10-09T10:11:19.501Z,54.93
2022-10-09T10:14:50.024Z,57.18
2022-10-09T10:18:16.129Z,58.09
2022-10-09T10:21:47.017Z,56.47
2022-10-09T10:25:20.612Z,55.95
2022-10-09T10:29:03.878Z,51.08
2022-10-09T10:32:34.502Z,52.14
2022-10-09T10:35:58.333Z,52.92
2022-10-09T10:39:55.676Z,53.34
2022-10-09T10:43:31.831Z,55.25
2022-10-09T10:47:03.677Z,50.46
2022-10-09T10:50:36.441Z,50.38
2022-10-09T10:54:34.809Z,51.92
2022-10-09T10:58:13.994Z,53.10
2022-10-09T11:01:47.725Z,54.61
2022-10-09T11:05:43.765Z,57.43
2022-10-09T11:09:37.793Z,56.95
2022-10-09T11:13:20.071Z,56.25
2022-10-09T11:17:12.770Z,57.94
2022-10-09T11:21:04.963Z,58.41
2022-10-09T11:24:29.592Z,58.13
2022-10-09T11:28:13.097Z,57.86
2022-10-09T11:31:41.075Z,56.17
2022-10-09T11:35:05.912Z,54.50
2022-10-09T11:38:33.395Z,53.58
2022-10-09T11:41:55.808Z,53.85
2022-10-09T11:45:37.634Z,53.63
2022-10-09T11:49:20.748Z,53.95
2022-10-09T11:52:54.327Z,55.63
2022-10-09T11:56:27.797Z,55.84
2022-10-09T11:59:49.359Z,56.51
2022-10-09T12:03:36.022Z,56.64
2022-10-09T12:07:07.324Z,55.90
2022-10-09T12:10:35.590Z,57.67
2022-10-09T12:14:00.637Z,56.37
2022-10-09T12:17:22.130Z,55.23
2022-10-09T12:20:47.732Z,53.72
2022-10-09T12:24:16.956Z,53.50
2022-10-09T12:27:41.024Z,53.02
2022-10-09T12:31:14.380Z,52.69
2022-10-09T12:34:47.215Z,53.87
2022-10-09T12:38:25.372Z,54.41
2022-10-09T12:41:51.581Z,55.17
2022-10-09T12:45:27.646Z,55.82
2022-10-09T12:48:51.649Z,58.09
2022-10-09T12:52:18.722Z,57.78
2022-10-09T12:55:53.179Z,57.83
2022-10-09T12:59:16.005Z,59.43
2022-10-09T13:02:37.635Z,59.44
2022-10-09T13:05:59.605Z,59.14
2022-10-09T13:09:34.240Z,57.27
2022-10-09T13:12:59.325Z,55.70
2022-10-09T13:16:22.150Z,57.48
2022-10-09T13:19:53.028Z,55.66
2022-10-09T13:23:33.563Z,57.18
2022-10-09T13:26:55.174Z,55.68
2022-10-09T13:30:19.153Z,55.17
2022-10-09T13:33:40.757Z,50.27
2022-10-09T13:37:02.261Z,50.00
2022-10-09T13:40:26.263Z,51.49
2022-10-09T13:43:53.067Z,49.38
2022-10-09T13:47:20.768Z,49.98
2022-10-09T13:50:48.188Z,50.54
2022-10-09T13:54:11.986Z,52.98
2022-10-09T13:57:33.561Z,54.65
2022-10-09T14:00:55.867Z,54.37
2022-10-09T14:04:17.884Z,56.25
2022-10-09T14:07:42.035Z,54.75
2022-10-09T14:11:06.012Z,55.13
2022-10-09T14:14:29.789Z,56.68
2022-10-09T14:17:51.610Z,57.12
2022-10-09T14:21:17.391Z,57.07
2022-10-09T14:24:39.287Z,56.79
2022-10-09T14:28:00.863Z,57.20
2022-10-09T14:31:25.360Z,58.53
2022-10-09T14:34:49.235Z,58.64
2022-10-09T14:38:12.980Z,58.38
2022-10-09T14:41:37.934Z,58.41
2022-10-09T14:44:59.668Z,57.91
2022-10-09T14:48:23.285Z,58.07
2022-10-09T14:51:47.601Z,59.53
2022-10-09T14:55:09.364Z,60.31
2022-10-09T14:58:35.945Z,60.31
2022-10-09T15:01:59.027Z,61.79
2022-10-09T15:05:20.534Z,61.91
2022-10-09T15:08:42.540Z,62.01
2022-10-09T15:12:06.281Z,61.52
2022-10-09T15:15:32.464Z,61.44
2022-10-09T15:18:55.525Z,61.11
2022-10-09T15:22:19.310Z,62.45
2022-10-09T15:25:50.093Z,61.09
2022-10-09T15:29:12.166Z,61.74
2022-10-09T15:32:33.709Z,61.19
2022-10-09T15:35:55.286Z,62.17
2022-10-09T15:39:16.799Z,63.55
2022-10-09T15:42:41.557Z,64.24
2022-10-09T15:46:03.528Z,61.87
2022-10-09T15:49:27.393Z,62.43
2022-10-09T15:52:49.278Z,62.30
2022-10-09T15:56:16.880Z,61.54
2022-10-09T15:59:41.314Z,60.35
2022-10-09T16:03:08.642Z,60.65
2022-10-09T16:06:32.428Z,61.14
2022-10-09T16:09:56.859Z,60.65
2022-10-09T16:13:21.657Z,61.31
2022-10-09T16:16:43.250Z,60.59
2022-10-09T16:20:05.264Z,60.43
2022-10-09T16:23:26.900Z,60.70
2022-10-09T16:26:51.082Z,60.85
2022-10-09T16:30:13.949Z,60.47
2022-10-09T16:33:35.472Z,60.56
2022-10-09T16:36:59.593Z,60.28
2022-10-09T16:40:37.386Z,60.55
2022-10-09T16:44:14.572Z,59.50
2022-10-09T16:47:38.387Z,59.15
2022-10-09T17:00:19.377Z,59.91
2022-10-09T17:03:43.320Z,60.25
2022-10-09T17:07:04.874Z,60.74
2022-10-09T17:16:18.065Z,61.14
2022-10-09T17:23:05.046Z,62.57
2022-10-09T17:26:28.883Z,63.55
2022-10-09T17:29:50.488Z,63.93
2022-10-09T17:33:16.267Z,63.14
2022-10-09T17:36:42.152Z,62.76
2022-10-09T17:40:03.988Z,63.10
2022-10-09T17:43:25.529Z,63.67
2022-10-09T17:46:47.029Z,64.16
2022-10-09T17:50:09.129Z,63.81
2022-10-09T17:53:31.257Z,64.06
2022-10-09T17:56:52.816Z,63.42
2022-10-09T18:00:22.524Z,63.82
2022-10-09T18:03:46.478Z,63.31
2022-10-09T18:07:08.056Z,63.50
2022-10-09T18:10:29.572Z,62.53
2022-10-09T18:13:52.169Z,62.95
2022-10-09T18:17:13.894Z,62.23
2022-10-09T18:20:36.951Z,62.70
2022-10-09T18:23:58.510Z,62.77
2022-10-09T18:27:20.446Z,63.33
2022-10-09T18:30:47.887Z,62.08
2022-10-09T18:34:09.850Z,66.17
2022-10-09T18:37:31.547Z,68.72
2022-10-09T18:40:53.083Z,66.95
2022-10-09T18:44:19.559Z,66.62
2022-10-09T18:47:41.546Z,62.90
2022-10-09T18:51:04.547Z,61.10
2022-10-09T18:54:27.460Z,59.26
2022-10-09T18:57:49.132Z,60.23
2022-10-09T19:01:13.341Z,62.06
2022-10-09T19:04:39.696Z,64.38
2022-10-09T19:08:01.198Z,65.92
2022-10-09T19:11:22.755Z,67.18
2022-10-09T19:14:45.249Z,66.94
2022-10-09T19:18:06.802Z,66.11
2022-10-09T19:21:28.540Z,66.12
2022-10-09T19:24:52.375Z,65.43
2022-10-09T19:28:16.160Z,65.63
2022-10-09T19:31:37.782Z,65.90
2022-10-09T19:34:59.331Z,65.76
2022-10-09T19:38:24.812Z,66.18
2022-10-09T19:41:48.677Z,66.28
2022-10-09T19:45:10.497Z,66.98
2022-10-09T19:48:32.521Z,66.08
2022-10-09T19:51:54.093Z,66.05
2022-10-09T19:55:16.496Z,67.04
2022-10-09T19:58:44.694Z,66.85
2022-10-09T20:02:07.893Z,66.29
2022-10-09T20:05:29.420Z,65.43
2022-10-09T20:08:53.418Z,65.39
2022-10-09T20:12:19.211Z,65.63
2022-10-09T20:15:43.880Z,64.75
2022-10-09T20:19:05.443Z,64.17
2022-10-09T20:22:29.281Z,64.71
2022-10-09T20:26:12.968Z,65.57
2022-10-09T20:29:34.572Z,65.11
2022-10-09T20:32:59.423Z,64.01
2022-10-09T20:36:24.189Z,63.12
2022-10-09T20:39:46.229Z,62.78
2022-10-09T20:43:09.996Z,62.22
2022-10-09T20:46:36.081Z,62.17
2022-10-09T20:49:57.587Z,62.11
2022-10-09T20:53:19.142Z,62.52
2022-10-09T20:56:44.946Z,63.15
2022-10-09T21:00:07.555Z,63.13
2022-10-09T21:03:29.076Z,63.30
2022-10-09T21:06:50.611Z,63.68
2022-10-09T21:10:12.165Z,63.34
2022-10-09T21:13:39.195Z,63.50
2022-10-09T21:17:03.078Z,63.71
2022-10-09T21:20:24.650Z,63.31
2022-10-09T21:23:50.061Z,62.60
2022-10-09T21:27:11.572Z,62.42
2022-10-09T21:30:41.789Z,62.77
2022-10-09T21:34:03.504Z,63.37
2022-10-09T21:37:25.074Z,63.03
2022-10-09T21:40:49.899Z,62.57
2022-10-09T21:44:11.534Z,60.84
2022-10-09T21:47:35.360Z,60.78
2022-10-09T21:50:57.017Z,61.05
2022-10-09T21:54:18.651Z,60.74
2022-10-09T21:57:40.299Z,61.38
2022-10-09T22:01:02.755Z,62.15
2022-10-09T22:04:24.321Z,62.03
2022-10-09T22:07:45.897Z,63.10
2022-10-09T22:11:10.836Z,63.73
2022-10-09T22:14:32.431Z,63.47
2022-10-09T22:17:53.915Z,61.93
2022-10-09T22:21:16.462Z,62.96
2022-10-09T22:24:38.009Z,62.54
2022-10-09T22:27:59.554Z,62.81
2022-10-09T22:31:24.176Z,62.89
2022-10-09T22:34:45.721Z,63.58
2022-10-09T22:38:07.215Z,61.69
2022-10-09T22:41:33.024Z,61.51
2022-10-09T22:44:56.788Z,60.92
2022-10-09T22:48:18.307Z,60.80
2022-10-09T22:51:42.306Z,60.18
2022-10-09T22:55:04.129Z,61.82
2022-10-09T22:58:26.066Z,62.08
2022-10-09T23:01:56.390Z,63.48
2022-10-09T23:05:17.896Z,63.82
2022-10-09T23:08:43.538Z,64.37
2022-10-09T23:12:05.159Z,63.13
2022-10-09T23:15:26.709Z,63.87
2022-10-09T23:18:48.259Z,64.00
2022-10-09T23:22:09.773Z,61.85
2022-10-09T23:25:31.615Z,63.86
2022-10-09T23:29:02.444Z,62.60
2022-10-09T23:32:26.433Z,60.77
2022-10-09T23:35:47.995Z,61.44
2022-10-09T23:39:09.889Z,60.51
2022-10-09T23:42:31.428Z,60.11
2022-10-09T23:45:57.687Z,60.71
2022-10-09T23:49:19.229Z,61.93
2022-10-09T23:52:42.970Z,61.88
2022-10-09T23:56:29.321Z,63.61
2022-10-09T23:59:50.874Z,63.04
